| time (UTC) | temp F | wind direction | speed knots | gust knots | rain 1hr in | rain 24hr in | rain mn in | humidity % | barometer mb |
| 20260502214118 | 58 | 0.0 | 0.0 | 0.00 | 0.00 | 0.00 | 99 | ||
| 20260502212118 | 58 | 0.0 | 0.0 | 0.00 | 0.00 | 0.00 | 99 | ||
| 20260502210118 | 58 | 0.0 | 0.0 | 0.00 | 0.00 | 0.00 | 99 | ||
| 20260502204118 | 59 | 0.0 | 0.0 | 0.00 | 0.00 | 0.00 | 99 | ||
| 20260502202118 | 59 | 0.0 | 0.0 | 0.00 | 0.00 | 0.00 | 99 | ||
| 20260502200118 | 59 | 0.0 | 0.0 | 0.00 | 0.00 | 0.00 | 99 | ||
| 20260502194118 | 59 | 0.0 | 0.0 | 0.00 | 0.00 | 0.00 | 99 | ||
| 20260502192118 | 60 | 0.0 | 0.0 | 0.00 | 0.00 | 0.00 | 99 | ||
| 20260502190118 | 60 | 0.0 | 0.0 | 0.00 | 0.00 | 0.00 | 99 | ||
| 20260502184118 | 61 | 0.0 | 0.0 | 0.00 | 0.00 | 0.00 | 99 | ||
| 20260502182118 | 60 | 0.0 | 0.0 | 0.00 | 0.00 | 0.00 | 99 | ||
| 20260502180118 | 61 | 0.0 | 0.0 | 0.00 | 0.00 | 0.00 | 99 | ||
| 20260502170118 | 68 | 0.0 | 0.0 | 0.00 | 0.00 | 0.00 | 94 | ||
| 20260502164117 | 69 | 0.0 | 0.0 | 0.00 | 0.00 | 0.00 | 92 | ||
| 20260502162118 | 68 | 0.0 | 0.0 | 0.00 | 0.00 | 0.00 | 95 | ||
| 20260502160117 | 68 | 0.0 | 0.0 | 0.00 | 0.00 | 0.00 | 92 | ||
| 20260502152117 | 71 | 0.0 | 0.0 | 0.00 | 0.00 | 0.00 | 83 | ||
| 20260502150117 | 71 | 0.0 | 0.0 | 0.00 | 0.00 | 0.00 | 88 | ||
| 20260502140117 | 66 | 0.0 | 0.0 | 0.00 | 0.00 | 0.00 | 99 | ||
| 20260502130117 | 68 | 0.0 | 0.0 | 0.00 | 0.00 | 0.00 | 83 | ||
| 20260502122117 | 73 | 0.0 | 0.0 | 0.00 | 0.00 | 0.00 | 67 | ||
| 20260502120117 | 74 | 0.0 | 0.0 | 0.00 | 0.00 | 0.00 | 54 | ||
| 20260502114117 | 75 | 0.0 | 0.0 | 0.00 | 0.00 | 0.00 | 53 | ||
| 20260502112117 | 75 | 0.0 | 0.0 | 0.00 | 0.00 | 0.00 | 52 | ||
| 20260502110117 | 74 | 0.0 | 0.0 | 0.00 | 0.00 | 0.00 | 54 | ||
| 20260502104117 | 73 | 0.0 | 0.0 | 0.00 | 0.00 | 0.00 | 56 | ||
| 20260502102117 | 72 | 0.0 | 0.0 | 0.00 | 0.00 | 0.00 | 55 | ||
| 20260502100117 | 70 | 0.0 | 0.0 | 0.00 | 0.00 | 0.00 | 58 | ||
| 20260502090117 | 68 | 0.0 | 0.0 | 0.00 | 0.00 | 0.00 | 61 | ||
| 20260502070117 | 58 | 0.0 | 0.0 | 0.00 | 0.00 | 0.00 | 72 | ||
| 20260502064117 | 56 | 0.0 | 0.0 | 0.00 | 0.00 | 0.00 | 73 | ||
| 20260502062117 | 55 | 0.0 | 0.0 | 0.00 | 0.00 | 0.00 | 74 | ||
| 20260502060117 | 55 | 0.0 | 0.0 | 0.00 | 0.00 | 0.00 | 70 | ||
| 20260502054117 | 53 | 0.0 | 0.0 | 0.00 | 0.00 | 0.00 | 71 | ||
| 20260502052117 | 52 | 0.0 | 0.0 | 0.00 | 0.00 | 0.00 | 75 | ||
| 20260502050117 | 51 | 0.0 | 0.0 | 0.00 | 0.00 | 0.00 | 76 | ||
| 20260502044117 | 49 | 0.0 | 0.0 | 0.00 | 0.00 | 0.00 | 79 | ||
| 20260502042117 | 49 | 0.0 | 0.0 | 0.00 | 0.00 | 0.00 | 81 | ||
| 20260502040117 | 49 | 0.0 | 0.0 | 0.00 | 0.00 | 0.00 | 78 | ||
| 20260502034117 | 48 | 0.0 | 0.0 | 0.00 | 0.00 | 0.00 | 79 | ||
| 20260502032117 | 48 | 0.0 | 0.0 | 0.00 | 0.00 | 0.00 | 79 | ||
| 20260502030117 | 48 | 0.0 | 0.0 | 0.00 | 0.00 | 0.00 | 80 | ||
| 20260502024117 | 48 | 0.0 | 0.0 | 0.00 | 0.00 | 0.00 | 79 | ||
| 20260502022117 | 48 | 0.0 | 0.0 | 0.00 | 0.00 | 0.00 | 81 | ||
| 20260502020117 | 48 | 0.0 | 0.0 | 0.00 | 0.00 | 0.00 | 79 | ||
| 20260502012117 | 49 | 0.0 | 0.0 | 0.00 | 0.00 | 0.00 | 76 | ||
| 20260502010117 | 50 | 0.0 | 0.0 | 0.00 | 0.00 | 0.00 | 72 | ||
| 20260502004117 | 51 | 0.0 | 0.0 | 0.00 | 0.00 | 0.00 | 71 | ||
| 20260502002117 | 51 | 0.0 | 0.0 | 0.00 | 0.00 | 0.00 | 72 | ||
| 20260502000117 | 51 | 0.0 | 0.0 | 0.00 | 0.00 | 0.00 | 72 | ||
| 20260501234117 | 51 | 0.0 | 0.0 | 0.00 | 0.00 | 0.00 | 71 | ||
| 20260501232117 | 52 | 0.0 | 0.0 | 0.00 | 0.00 | 0.00 | 69 | ||
| 20260501230117 | 52 | 0.0 | 0.0 | 0.00 | 0.00 | 0.00 | 71 | ||
| 20260501224117 | 53 | 0.0 | 0.0 | 0.00 | 0.00 | 0.00 | 69 | ||
| 20260501222117 | 53 | 0.0 | 0.0 | 0.00 | 0.00 | 0.00 | 70 | ||
| 20260501220117 | 54 | 0.0 | 0.0 | 0.00 | 0.00 | 0.00 | 69 |